createdAt,value
2023-02-28T00:02:18.938Z,1.23
2023-02-28T00:04:47.309Z,1.70
2023-02-28T00:07:14.924Z,1.63
2023-02-28T00:09:42.486Z,1.67
2023-02-28T00:12:11.810Z,1.95
2023-02-28T00:14:39.379Z,1.77
2023-02-28T00:17:06.914Z,1.73
2023-02-28T00:19:34.656Z,1.77
2023-02-28T00:22:02.247Z,1.92
2023-02-28T00:24:29.795Z,1.52
2023-02-28T00:26:57.415Z,1.90
2023-02-28T00:29:26.367Z,1.45
2023-02-28T00:31:53.940Z,1.05
2023-02-28T00:34:21.697Z,1.45
2023-02-28T00:36:50.731Z,1.20
2023-02-28T00:39:19.017Z,1.50
2023-02-28T00:41:46.616Z,1.45
2023-02-28T00:44:15.209Z,1.30
2023-02-28T00:46:44.075Z,1.42
2023-02-28T00:49:11.629Z,2.05
2023-02-28T00:51:39.176Z,1.80
2023-02-28T00:54:06.828Z,1.77
2023-02-28T00:56:34.341Z,1.52
2023-02-28T00:59:01.921Z,1.92
2023-02-28T01:01:29.823Z,2.85
2023-02-28T01:03:58.949Z,1.90
2023-02-28T01:06:26.664Z,1.88
2023-02-28T01:08:54.301Z,2.45
2023-02-28T01:11:22.043Z,1.75
2023-02-28T01:13:49.593Z,2.30
2023-02-28T01:16:17.365Z,2.13
2023-02-28T01:18:46.487Z,2.00
2023-02-28T01:21:18.878Z,2.13
2023-02-28T01:23:46.542Z,2.22
2023-02-28T01:26:16.490Z,1.83
2023-02-28T01:28:44.647Z,1.88
2023-02-28T01:31:12.874Z,2.05
2023-02-28T01:33:41.045Z,2.00
2023-02-28T01:36:12.232Z,2.30
2023-02-28T01:38:41.756Z,1.80
2023-02-28T01:41:10.374Z,1.92
2023-02-28T01:44:04.019Z,2.50
2023-02-28T01:46:32.841Z,1.80
2023-02-28T01:49:06.205Z,2.40
2023-02-28T01:51:39.231Z,1.80
2023-02-28T01:54:14.678Z,2.05
2023-02-28T01:56:47.024Z,2.10
2023-02-28T01:59:20.369Z,2.33
2023-02-28T02:01:48.620Z,2.20
2023-02-28T02:04:16.173Z,2.50
2023-02-28T02:06:47.647Z,3.08
2023-02-28T02:09:16.599Z,2.45
2023-02-28T02:11:47.072Z,2.97
2023-02-28T02:14:37.317Z,3.20
2023-02-28T02:17:20.561Z,2.50
2023-02-28T02:20:23.241Z,2.92
2023-02-28T02:23:19.311Z,3.35
2023-02-28T02:25:53.062Z,3.72
2023-02-28T02:28:48.500Z,3.00
2023-02-28T02:31:53.019Z,3.40
2023-02-28T02:34:31.840Z,3.35
2023-02-28T02:37:10.715Z,3.40
2023-02-28T02:39:49.753Z,3.25
2023-02-28T02:42:23.466Z,3.95
2023-02-28T02:44:57.770Z,3.10
2023-02-28T02:47:28.203Z,3.70
2023-02-28T02:49:59.446Z,3.38
2023-02-28T02:52:32.049Z,3.55
2023-02-28T02:55:00.992Z,3.40
2023-02-28T02:57:33.948Z,2.90
2023-02-28T03:00:04.245Z,3.45
2023-02-28T03:02:35.103Z,3.88
2023-02-28T03:05:08.526Z,3.95
2023-02-28T03:07:36.082Z,6.18
2023-02-28T03:10:03.686Z,7.72
2023-02-28T03:12:40.429Z,8.35
2023-02-28T03:15:14.859Z,9.55
2023-02-28T03:17:54.561Z,8.88
2023-02-28T03:20:33.237Z,6.50
2023-02-28T03:23:11.205Z,5.85
2023-02-28T03:25:47.991Z,5.63
2023-02-28T03:28:20.493Z,5.00
2023-02-28T03:30:54.683Z,5.38
2023-02-28T03:33:25.802Z,5.22
2023-02-28T03:36:00.232Z,5.35
2023-02-28T03:38:33.513Z,5.90
2023-02-28T03:41:07.530Z,6.38
2023-02-28T03:43:38.861Z,6.32
2023-02-28T03:46:11.653Z,6.05
2023-02-28T03:48:43.522Z,5.60
2023-02-28T03:51:17.238Z,5.63
2023-02-28T03:53:48.583Z,4.80
2023-02-28T03:56:19.521Z,4.72
2023-02-28T03:58:53.679Z,4.32
2023-02-28T04:01:25.860Z,3.95
2023-02-28T04:03:53.800Z,3.92
2023-02-28T04:06:24.588Z,4.15
2023-02-28T04:08:52.673Z,4.50
2023-02-28T04:11:25.948Z,4.38
2023-02-28T04:13:53.554Z,3.80
2023-02-28T04:16:33.947Z,4.38
2023-02-28T04:19:03.948Z,3.53
2023-02-28T04:21:34.075Z,3.67
2023-02-28T04:24:01.835Z,4.00
2023-02-28T04:26:31.654Z,3.90
2023-02-28T04:29:00.118Z,5.28
2023-02-28T04:31:28.597Z,4.68
2023-02-28T04:33:56.638Z,4.15
2023-02-28T04:36:24.712Z,4.63
2023-02-28T04:38:53.987Z,5.10
2023-02-28T04:41:23.944Z,4.72
2023-02-28T04:43:52.767Z,4.28
2023-02-28T04:46:20.894Z,4.25
2023-02-28T04:48:48.705Z,3.95
2023-02-28T04:51:17.891Z,4.40
2023-02-28T04:53:45.910Z,4.20
2023-02-28T04:56:16.746Z,4.32
2023-02-28T04:58:44.660Z,4.43
2023-02-28T05:01:20.293Z,4.55
2023-02-28T05:03:48.453Z,4.35
2023-02-28T05:06:16.853Z,4.45
2023-02-28T05:08:44.654Z,4.63
2023-02-28T05:11:18.408Z,4.38
2023-02-28T05:13:46.664Z,4.63
2023-02-28T05:16:14.293Z,4.82
2023-02-28T05:18:42.556Z,4.57
2023-02-28T05:21:26.336Z,4.93
2023-02-28T05:23:54.499Z,4.82
2023-02-28T05:26:23.751Z,5.43
2023-02-28T05:28:51.514Z,4.72
2023-02-28T05:31:19.481Z,5.43
2023-02-28T05:33:47.129Z,5.05
2023-02-28T05:36:15.092Z,5.35
2023-02-28T05:38:42.870Z,5.40
2023-02-28T05:41:11.616Z,4.85
2023-02-28T05:43:40.557Z,5.30
2023-02-28T05:46:09.729Z,5.30
2023-02-28T05:48:38.890Z,5.95
2023-02-28T05:51:07.970Z,6.03
2023-02-28T05:53:36.145Z,5.88
2023-02-28T05:56:04.252Z,6.38
2023-02-28T05:58:32.426Z,6.32
2023-02-28T06:01:02.733Z,5.90
2023-02-28T06:03:30.275Z,5.40
2023-02-28T06:05:58.062Z,5.45
2023-02-28T06:08:26.387Z,6.28
2023-02-28T06:10:54.082Z,5.60
2023-02-28T06:13:21.640Z,5.80
2023-02-28T06:15:49.175Z,5.97
2023-02-28T06:18:18.044Z,5.93
2023-02-28T06:20:45.635Z,5.40
2023-02-28T06:23:13.232Z,5.70
2023-02-28T06:25:40.830Z,5.65
2023-02-28T06:28:08.328Z,5.40
2023-02-28T06:30:35.916Z,5.97
2023-02-28T06:33:05.540Z,5.65
2023-02-28T06:35:34.540Z,6.78
2023-02-28T06:38:02.173Z,6.30
2023-02-28T06:40:32.780Z,6.80
2023-02-28T06:43:00.382Z,7.25
2023-02-28T06:45:28.040Z,7.13
2023-02-28T06:47:55.612Z,7.50
2023-02-28T06:50:23.201Z,7.80
2023-02-28T06:52:54.829Z,7.57
2023-02-28T06:55:22.389Z,7.65
2023-02-28T06:57:51.494Z,7.72
2023-02-28T07:00:19.772Z,7.88
2023-02-28T07:02:47.974Z,7.50
2023-02-28T07:05:15.682Z,7.15
2023-02-28T07:07:45.472Z,6.88
2023-02-28T07:10:19.797Z,6.85
2023-02-28T07:12:48.227Z,6.90
2023-02-28T07:15:15.970Z,6.85
2023-02-28T07:17:43.509Z,7.00
2023-02-28T07:20:12.321Z,6.03
2023-02-28T07:22:40.596Z,5.90
2023-02-28T07:25:09.112Z,5.90
2023-02-28T07:27:38.297Z,6.38
2023-02-28T07:30:06.866Z,6.47
2023-02-28T07:32:34.472Z,6.18
2023-02-28T07:35:02.086Z,6.05
2023-02-28T07:37:32.363Z,6.05
2023-02-28T07:39:59.922Z,5.80
2023-02-28T07:42:27.450Z,6.70
2023-02-28T07:44:56.340Z,6.32
2023-02-28T07:47:25.463Z,6.82
2023-02-28T07:49:53.796Z,7.05
2023-02-28T07:52:21.450Z,6.43
2023-02-28T07:54:49.091Z,7.10
2023-02-28T07:57:16.848Z,7.13
2023-02-28T07:59:46.105Z,6.63
2023-02-28T08:02:16.314Z,8.00
2023-02-28T08:04:44.255Z,5.97
2023-02-28T08:07:14.168Z,5.60
2023-02-28T08:09:42.187Z,6.13
2023-02-28T08:12:10.877Z,6.10
2023-02-28T08:14:38.811Z,4.78
2023-02-28T08:17:06.391Z,4.60
2023-02-28T08:19:35.429Z,3.92
2023-02-28T08:22:03.082Z,4.18
2023-02-28T08:24:31.402Z,4.05
2023-02-28T08:26:58.955Z,4.10
2023-02-28T08:29:26.554Z,3.55
2023-02-28T08:31:54.322Z,3.03
2023-02-28T08:34:22.000Z,3.28
2023-02-28T08:36:50.874Z,2.42
2023-02-28T08:39:18.799Z,2.92
2023-02-28T08:41:49.360Z,2.80
2023-02-28T08:44:18.876Z,2.47
2023-02-28T08:46:46.501Z,2.30
2023-02-28T08:49:14.135Z,2.25
2023-02-28T08:51:41.694Z,1.95
2023-02-28T08:54:13.306Z,1.95
2023-02-28T08:56:41.166Z,2.15
2023-02-28T08:59:11.050Z,1.80
2023-02-28T09:01:38.754Z,2.08
2023-02-28T09:04:08.080Z,2.20
2023-02-28T09:06:35.970Z,2.22
2023-02-28T09:09:06.897Z,2.10
2023-02-28T09:11:37.012Z,1.90
2023-02-28T09:14:05.369Z,2.72
2023-02-28T09:16:34.635Z,2.65
2023-02-28T09:19:02.705Z,2.10
2023-02-28T09:21:30.557Z,2.40
2023-02-28T09:23:58.320Z,1.10
2023-02-28T09:26:32.433Z,1.33
2023-02-28T09:29:08.593Z,1.60
2023-02-28T09:31:36.356Z,1.40
2023-02-28T09:34:04.091Z,1.23
2023-02-28T09:36:43.827Z,1.20
2023-02-28T09:39:13.175Z,1.67
2023-02-28T09:41:48.445Z,2.28
2023-02-28T09:44:24.275Z,2.63
2023-02-28T09:46:55.898Z,1.70
2023-02-28T09:49:27.293Z,2.67
2023-02-28T09:52:00.811Z,2.30
2023-02-28T09:54:31.809Z,2.15
2023-02-28T09:57:07.154Z,2.53
2023-02-28T09:59:46.196Z,1.70
2023-02-28T10:02:25.311Z,1.88
2023-02-28T10:04:56.941Z,1.60
2023-02-28T10:07:40.101Z,2.42
2023-02-28T10:10:18.021Z,2.92
2023-02-28T10:12:48.614Z,2.53
2023-02-28T10:15:19.441Z,2.33
2023-02-28T10:17:55.169Z,3.20
2023-02-28T10:20:32.274Z,3.28
2023-02-28T10:23:08.274Z,2.40
2023-02-28T10:25:38.218Z,1.85
2023-02-28T10:28:12.910Z,1.60
2023-02-28T10:30:44.722Z,1.50
2023-02-28T10:33:21.408Z,1.85
2023-02-28T10:35:49.576Z,3.15
2023-02-28T10:38:20.717Z,3.08
2023-02-28T10:40:48.409Z,2.20
2023-02-28T10:43:22.753Z,2.25
2023-02-28T10:46:01.432Z,2.03
2023-02-28T10:48:35.585Z,2.90
2023-02-28T10:51:05.111Z,1.48
2023-02-28T10:53:57.227Z,3.50
2023-02-28T10:56:25.939Z,2.90
2023-02-28T10:58:57.016Z,4.97
2023-02-28T11:01:35.781Z,3.53
2023-02-28T11:04:04.218Z,3.00
2023-02-28T11:06:33.890Z,4.35
2023-02-28T11:09:04.803Z,1.73
2023-02-28T11:11:45.271Z,1.55
2023-02-28T11:14:21.280Z,5.00
2023-02-28T11:16:51.338Z,3.17
2023-02-28T11:19:22.739Z,2.83
2023-02-28T11:21:57.287Z,4.97
2023-02-28T11:24:28.621Z,4.50
2023-02-28T11:26:56.984Z,3.03
2023-02-28T11:29:27.386Z,4.60
2023-02-28T11:32:13.675Z,2.50
2023-02-28T11:34:42.756Z,1.90
2023-02-28T11:37:14.616Z,1.48
2023-02-28T11:39:42.504Z,1.65
2023-02-28T11:42:33.677Z,1.48
2023-02-28T11:45:16.239Z,1.92
2023-02-28T11:47:50.504Z,1.55
2023-02-28T11:50:42.078Z,1.38
2023-02-28T11:53:21.982Z,1.98
2023-02-28T11:55:53.193Z,1.60
2023-02-28T11:58:34.007Z,1.63
2023-02-28T12:01:22.553Z,1.67
2023-02-28T12:04:00.410Z,1.45
2023-02-28T12:06:35.181Z,1.70
2023-02-28T12:09:12.925Z,1.77
2023-02-28T12:11:53.624Z,2.00
2023-02-28T12:14:55.339Z,1.65
2023-02-28T12:17:39.996Z,1.80
2023-02-28T12:20:20.613Z,1.70
2023-02-28T12:23:02.786Z,1.77
2023-02-28T12:25:57.625Z,1.63
2023-02-28T12:28:29.649Z,1.80
2023-02-28T12:31:03.345Z,1.60
2023-02-28T12:33:36.599Z,1.63
2023-02-28T12:36:12.901Z,1.63
2023-02-28T12:38:45.068Z,1.90
2023-02-28T12:41:15.612Z,1.92
2023-02-28T12:43:46.610Z,2.15
2023-02-28T12:46:19.561Z,1.80
2023-02-28T12:48:51.103Z,1.80
2023-02-28T12:51:20.985Z,1.67
2023-02-28T12:53:59.360Z,1.92
2023-02-28T12:56:34.986Z,1.60
2023-02-28T12:59:08.263Z,1.88
2023-02-28T13:01:49.406Z,2.10
2023-02-28T13:04:43.911Z,1.92
2023-02-28T13:07:30.462Z,1.90
2023-02-28T13:10:00.379Z,1.85
2023-02-28T13:12:28.323Z,1.80
2023-02-28T13:15:07.288Z,1.67
2023-02-28T13:17:35.219Z,1.77
2023-02-28T13:20:03.119Z,1.83
2023-02-28T13:22:45.214Z,1.73
2023-02-28T13:25:54.359Z,1.80
2023-02-28T13:29:07.740Z,2.30
2023-02-28T13:32:30.575Z,2.03
2023-02-28T13:35:32.279Z,1.75
2023-02-28T13:38:36.919Z,1.42
2023-02-28T13:41:41.986Z,1.65
2023-02-28T13:44:11.869Z,1.77
2023-02-28T13:47:18.186Z,1.75
2023-02-28T13:49:45.997Z,1.85
2023-02-28T13:52:20.263Z,1.75
2023-02-28T13:55:01.941Z,1.50
2023-02-28T13:57:40.686Z,1.60
2023-02-28T14:00:22.647Z,1.80
2023-02-28T14:03:07.686Z,2.35
2023-02-28T14:05:36.537Z,1.70
2023-02-28T14:08:14.375Z,1.63
2023-02-28T14:10:45.937Z,1.92
2023-02-28T14:13:37.982Z,2.35
2023-02-28T14:16:07.839Z,1.70
2023-02-28T14:18:37.686Z,1.58
2023-02-28T14:21:18.420Z,2.03
2023-02-28T14:24:07.184Z,1.90
2023-02-28T14:26:51.885Z,1.80
2023-02-28T14:29:35.450Z,1.85
2023-02-28T14:32:08.158Z,2.08
2023-02-28T14:34:45.894Z,2.30
2023-02-28T14:37:18.647Z,1.80
2023-02-28T14:39:46.873Z,1.77
2023-02-28T14:42:38.718Z,1.67
2023-02-28T14:45:07.155Z,1.88
2023-02-28T14:47:37.309Z,1.80
2023-02-28T14:50:06.651Z,1.95
2023-02-28T14:52:35.151Z,2.00
2023-02-28T14:55:08.166Z,2.05
2023-02-28T14:57:43.833Z,1.67
2023-02-28T15:00:17.969Z,2.20
2023-02-28T15:02:45.710Z,1.92
2023-02-28T15:05:25.477Z,1.90
2023-02-28T15:08:06.365Z,2.30
2023-02-28T15:10:35.161Z,1.83
2023-02-28T15:13:07.697Z,1.60
2023-02-28T15:16:01.225Z,2.15
2023-02-28T15:18:37.930Z,2.25
2023-02-28T15:21:08.770Z,1.90
2023-02-28T15:23:38.666Z,1.80
2023-02-28T15:26:07.474Z,1.95
2023-02-28T15:28:36.537Z,2.05
2023-02-28T15:31:18.359Z,2.00
2023-02-28T15:33:54.688Z,2.33
2023-02-28T15:36:28.753Z,2.15
2023-02-28T15:39:01.594Z,1.95
2023-02-28T15:41:39.936Z,2.00
2023-02-28T15:44:20.059Z,1.83
2023-02-28T15:46:59.401Z,1.98
2023-02-28T15:49:27.727Z,2.00
2023-02-28T15:51:59.781Z,1.55
2023-02-28T15:54:31.583Z,2.10
2023-02-28T15:57:04.692Z,2.30
2023-02-28T15:59:34.255Z,2.00
2023-02-28T16:02:18.912Z,2.15
2023-02-28T16:05:19.789Z,1.83
2023-02-28T16:07:49.117Z,2.33
2023-02-28T16:10:17.089Z,1.63
2023-02-28T16:12:44.785Z,1.90
2023-02-28T16:15:20.986Z,1.75
2023-02-28T16:17:49.088Z,1.92
2023-02-28T16:20:17.720Z,2.03
2023-02-28T16:22:46.550Z,1.90
2023-02-28T16:25:15.528Z,2.38
2023-02-28T16:27:44.771Z,2.22
2023-02-28T16:30:21.472Z,2.58
2023-02-28T16:32:49.524Z,2.60
2023-02-28T16:35:18.779Z,3.78
2023-02-28T16:37:46.885Z,3.47
2023-02-28T16:40:19.021Z,3.20
2023-02-28T16:42:47.618Z,3.55
2023-02-28T16:45:22.917Z,4.38
2023-02-28T16:47:50.733Z,4.65
2023-02-28T16:50:19.828Z,5.53
2023-02-28T16:52:47.828Z,6.75
2023-02-28T16:55:15.872Z,7.13
2023-02-28T16:57:44.985Z,5.40
2023-02-28T17:00:15.865Z,3.58
2023-02-28T17:02:44.963Z,2.63
2023-02-28T17:05:13.971Z,2.13
2023-02-28T17:07:41.936Z,2.55
2023-02-28T17:10:16.105Z,2.30
2023-02-28T17:12:44.000Z,3.97
2023-02-28T17:15:13.222Z,2.88
2023-02-28T17:17:41.244Z,3.92
2023-02-28T17:20:14.246Z,3.53
2023-02-28T17:22:41.915Z,3.08
2023-02-28T17:25:11.112Z,3.05
2023-02-28T17:27:39.098Z,3.15
2023-02-28T17:30:16.320Z,2.65
2023-02-28T17:32:44.156Z,3.00
2023-02-28T17:35:13.969Z,3.42
2023-02-28T17:37:41.849Z,3.88
2023-02-28T17:40:16.056Z,3.42
2023-02-28T17:42:43.794Z,3.30
2023-02-28T17:45:12.371Z,3.13
2023-02-28T17:47:40.788Z,3.33
2023-02-28T17:50:13.344Z,3.85
2023-02-28T17:52:42.361Z,4.50
2023-02-28T17:55:11.630Z,4.10
2023-02-28T17:57:39.568Z,3.92
2023-02-28T18:00:08.694Z,4.13
2023-02-28T18:02:39.977Z,4.22
2023-02-28T18:05:08.914Z,4.45
2023-02-28T18:07:38.288Z,5.55
2023-02-28T18:10:08.527Z,5.57
2023-02-28T18:12:36.180Z,6.53
2023-02-28T18:15:03.956Z,6.72
2023-02-28T18:17:31.636Z,8.15
2023-02-28T18:20:00.273Z,11.90
2023-02-28T18:22:27.865Z,9.90
2023-02-28T18:24:55.506Z,10.50
2023-02-28T18:27:24.614Z,11.80
2023-02-28T18:29:52.457Z,11.90
2023-02-28T18:32:20.216Z,10.43
2023-02-28T18:34:47.894Z,11.52
2023-02-28T18:37:15.996Z,13.80
2023-02-28T18:39:43.569Z,12.48
2023-02-28T18:42:11.235Z,8.75
2023-02-28T18:44:40.396Z,7.50
2023-02-28T18:47:08.072Z,11.85
2023-02-28T18:49:37.314Z,14.85
2023-02-28T18:52:05.256Z,10.85
2023-02-28T18:54:32.980Z,10.68
2023-02-28T18:57:02.025Z,8.77
2023-02-28T18:59:30.806Z,7.07
2023-02-28T19:01:59.726Z,8.43
2023-02-28T19:04:27.354Z,10.43
2023-02-28T19:06:54.892Z,9.98
2023-02-28T19:09:22.709Z,6.60
2023-02-28T19:11:50.327Z,5.47
2023-02-28T19:14:18.194Z,4.75
2023-02-28T19:16:47.118Z,5.75
2023-02-28T19:19:19.175Z,10.75
2023-02-28T19:21:46.935Z,9.57
2023-02-28T19:24:14.596Z,12.50
2023-02-28T19:26:42.313Z,16.70
2023-02-28T19:29:10.047Z,14.40
2023-02-28T19:31:38.189Z,11.88
2023-02-28T19:34:08.576Z,10.85
2023-02-28T19:36:37.706Z,8.98
2023-02-28T19:39:06.906Z,7.13
2023-02-28T19:41:34.552Z,7.65
2023-02-28T19:44:02.292Z,10.60
2023-02-28T19:46:29.935Z,7.20
2023-02-28T19:48:57.800Z,6.55
2023-02-28T19:51:25.491Z,9.80
2023-02-28T19:53:54.477Z,7.72
2023-02-28T19:56:22.137Z,7.15
2023-02-28T19:58:49.781Z,5.53
2023-02-28T20:01:19.588Z,6.28
2023-02-28T20:03:49.447Z,5.20
2023-02-28T20:06:17.144Z,6.28
2023-02-28T20:08:45.112Z,6.20
2023-02-28T20:11:16.635Z,6.32
2023-02-28T20:13:45.362Z,7.43
2023-02-28T20:16:17.591Z,5.97
2023-02-28T20:18:55.124Z,7.05
2023-02-28T20:21:22.819Z,5.57
2023-02-28T20:23:53.500Z,6.28
2023-02-28T20:26:22.561Z,6.85
2023-02-28T20:28:50.543Z,7.88
2023-02-28T20:31:20.649Z,9.52
2023-02-28T20:33:51.304Z,8.65
2023-02-28T20:36:22.693Z,7.32
2023-02-28T20:38:51.517Z,6.82
2023-02-28T20:41:19.838Z,7.13
2023-02-28T20:43:48.884Z,7.35
2023-02-28T20:46:16.510Z,6.68
2023-02-28T20:48:44.158Z,7.18
2023-02-28T20:51:12.081Z,9.15
2023-02-28T20:53:39.683Z,7.82
2023-02-28T20:56:08.969Z,9.50
2023-02-28T20:58:38.518Z,10.07
2023-02-28T21:01:12.671Z,9.35
2023-02-28T21:03:40.920Z,7.78
2023-02-28T21:06:08.916Z,8.68
2023-02-28T21:08:38.668Z,5.20
2023-02-28T21:11:08.831Z,5.10
2023-02-28T21:13:36.859Z,6.25
2023-02-28T21:16:07.668Z,7.38
2023-02-28T21:18:36.520Z,5.32
2023-02-28T21:21:05.052Z,4.78
2023-02-28T21:23:32.979Z,5.70
2023-02-28T21:26:05.141Z,5.55
2023-02-28T21:28:33.372Z,5.28
2023-02-28T21:31:05.340Z,6.25
2023-02-28T21:33:35.443Z,6.30
2023-02-28T21:36:04.280Z,7.22
2023-02-28T21:38:32.151Z,6.10
2023-02-28T21:41:04.989Z,4.25
2023-02-28T21:43:32.727Z,4.40
2023-02-28T21:46:02.014Z,4.22
2023-02-28T21:48:30.165Z,4.30
2023-02-28T21:51:02.305Z,4.03
2023-02-28T21:53:36.064Z,5.30
2023-02-28T21:56:05.594Z,4.15
2023-02-28T21:58:35.128Z,5.00
2023-02-28T22:01:06.853Z,5.10
2023-02-28T22:03:34.884Z,3.47
2023-02-28T22:06:12.484Z,4.50
2023-02-28T22:08:40.745Z,3.63
2023-02-28T22:11:09.519Z,3.80
2023-02-28T22:13:38.706Z,3.63
2023-02-28T22:16:11.880Z,2.85
2023-02-28T22:18:43.329Z,3.20
2023-02-28T22:21:13.730Z,2.80
2023-02-28T22:23:42.245Z,3.97
2023-02-28T22:29:08.676Z,4.57
2023-02-28T22:31:37.137Z,3.95
2023-02-28T22:34:07.072Z,3.80
2023-02-28T22:36:36.511Z,3.85
2023-02-28T22:39:05.082Z,3.65
2023-02-28T22:41:33.533Z,4.15
2023-02-28T22:44:03.353Z,3.95
2023-02-28T22:46:33.268Z,4.30
2023-02-28T22:49:01.737Z,4.32
2023-02-28T22:51:30.054Z,3.47
2023-02-28T22:53:59.588Z,3.83
2023-02-28T22:56:29.727Z,4.10
2023-02-28T22:59:00.647Z,4.40
2023-02-28T23:01:30.591Z,3.67
2023-02-28T23:03:59.063Z,3.78
2023-02-28T23:06:28.847Z,3.78
2023-02-28T23:09:01.236Z,4.15
2023-02-28T23:11:31.222Z,4.18
2023-02-28T23:13:59.406Z,4.50
2023-02-28T23:16:29.830Z,4.32
2023-02-28T23:18:58.870Z,3.80
2023-02-28T23:21:27.628Z,3.90
2023-02-28T23:23:55.641Z,3.60
2023-02-28T23:26:24.784Z,3.95
2023-02-28T23:28:52.342Z,4.30
2023-02-28T23:31:19.982Z,4.05
2023-02-28T23:33:47.689Z,4.10
2023-02-28T23:36:16.814Z,4.00
2023-02-28T23:38:48.522Z,4.22
2023-02-28T23:41:16.760Z,4.18
2023-02-28T23:43:45.856Z,4.18
2023-02-28T23:46:14.575Z,4.10
2023-02-28T23:48:42.771Z,4.13
2023-02-28T23:51:14.172Z,3.63
2023-02-28T23:53:44.852Z,4.20
2023-02-28T23:56:14.808Z,3.90
2023-02-28T23:58:43.626Z,3.70
